sensor_id;sensor_type;location;lat;lon;timestamp;pressure;altitude;pressure_sealevel;temperature;humidity
22181;BME280;11256;50.830;12.834;2023-04-06T00:04:21;97955.06;;;4.91;52.59
22181;BME280;11256;50.830;12.834;2023-04-06T00:09:22;97931.56;;;4.70;52.64
22181;BME280;11256;50.830;12.834;2023-04-06T00:14:22;97954.16;;;4.86;52.69
22181;BME280;11256;50.830;12.834;2023-04-06T00:19:22;97933.09;;;4.66;52.78
22181;BME280;11256;50.830;12.834;2023-04-06T00:24:23;97943.69;;;4.73;52.91
22181;BME280;11256;50.830;12.834;2023-04-06T00:29:23;97944.16;;;4.70;53.31
22181;BME280;11256;50.830;12.834;2023-04-06T00:34:23;97932.50;;;4.64;53.33
22181;BME280;11256;50.830;12.834;2023-04-06T00:39:24;97924.50;;;4.53;53.44
22181;BME280;11256;50.830;12.834;2023-04-06T00:44:24;97938.03;;;4.58;53.44
22181;BME280;11256;50.830;12.834;2023-04-06T00:49:25;97943.00;;;4.54;53.68
22181;BME280;11256;50.830;12.834;2023-04-06T00:54:25;97944.31;;;4.52;53.86
22181;BME280;11256;50.830;12.834;2023-04-06T00:59:27;97932.44;;;4.48;53.67
22181;BME280;11256;50.830;12.834;2023-04-06T01:04:28;97909.00;;;4.32;53.85
22181;BME280;11256;50.830;12.834;2023-04-06T01:09:29;97937.91;;;4.41;54.00
22181;BME280;11256;50.830;12.834;2023-04-06T01:14:31;97927.91;;;4.37;54.19
22181;BME280;11256;50.830;12.834;2023-04-06T01:19:34;97929.97;;;4.35;54.21
22181;BME280;11256;50.830;12.834;2023-04-06T01:24:34;97925.56;;;4.29;54.09
22181;BME280;11256;50.830;12.834;2023-04-06T01:29:45;97925.44;;;4.24;54.42
22181;BME280;11256;50.830;12.834;2023-04-06T01:34:51;97928.25;;;4.29;54.70
22181;BME280;11256;50.830;12.834;2023-04-06T01:39:51;97923.03;;;4.22;54.09
22181;BME280;11256;50.830;12.834;2023-04-06T01:45:00;97926.97;;;4.20;54.12
22181;BME280;11256;50.830;12.834;2023-04-06T01:50:01;97913.47;;;4.15;54.71
22181;BME280;11256;50.830;12.834;2023-04-06T01:55:04;97923.03;;;4.22;54.76
22181;BME280;11256;50.830;12.834;2023-04-06T02:00:24;97917.28;;;4.19;54.35
22181;BME280;11256;50.830;12.834;2023-04-06T02:05:29;97915.66;;;4.18;54.81
22181;BME280;11256;50.830;12.834;2023-04-06T02:10:31;97913.47;;;4.15;54.72
22181;BME280;11256;50.830;12.834;2023-04-06T02:15:35;97914.88;;;4.17;55.30
22181;BME280;11256;50.830;12.834;2023-04-06T02:20:36;97902.28;;;4.06;54.81
22181;BME280;11256;50.830;12.834;2023-04-06T02:25:36;97907.03;;;4.16;54.90
22181;BME280;11256;50.830;12.834;2023-04-06T02:30:37;97900.50;;;4.12;54.98
22181;BME280;11256;50.830;12.834;2023-04-06T02:35:38;97898.19;;;4.04;54.79
22181;BME280;11256;50.830;12.834;2023-04-06T02:40:39;97904.13;;;4.06;55.27
22181;BME280;11256;50.830;12.834;2023-04-06T02:45:50;97899.00;;;4.04;55.35
22181;BME280;11256;50.830;12.834;2023-04-06T02:50:51;97894.34;;;4.00;55.57
22181;BME280;11256;50.830;12.834;2023-04-06T02:55:51;97898.66;;;4.01;56.00
22181;BME280;11256;50.830;12.834;2023-04-06T03:00:52;97903.44;;;3.99;55.43
22181;BME280;11256;50.830;12.834;2023-04-06T03:05:52;97883.97;;;3.92;55.67
22181;BME280;11256;50.830;12.834;2023-04-06T03:11:00;97900.75;;;3.99;55.71
22181;BME280;11256;50.830;12.834;2023-04-06T03:16:08;97903.44;;;3.99;55.50
22181;BME280;11256;50.830;12.834;2023-04-06T03:21:09;97909.47;;;3.94;55.80
22181;BME280;11256;50.830;12.834;2023-04-06T03:26:19;97910.31;;;3.95;55.50
22181;BME280;11256;50.830;12.834;2023-04-06T03:31:20;97880.94;;;3.77;55.64
22181;BME280;11256;50.830;12.834;2023-04-06T03:36:28;97890.03;;;3.76;56.20
22181;BME280;11256;50.830;12.834;2023-04-06T03:41:30;97911.69;;;3.86;55.83
22181;BME280;11256;50.830;12.834;2023-04-06T03:46:39;97921.00;;;3.83;55.99
22181;BME280;11256;50.830;12.834;2023-04-06T03:51:41;97915.91;;;3.82;56.31
22181;BME280;11256;50.830;12.834;2023-04-06T03:56:42;97900.63;;;3.71;56.03
22181;BME280;11256;50.830;12.834;2023-04-06T04:01:42;97905.38;;;3.69;55.95
22181;BME280;11256;50.830;12.834;2023-04-06T04:06:42;97905.38;;;3.69;56.42
22181;BME280;11256;50.830;12.834;2023-04-06T04:11:43;97924.75;;;3.71;56.30
22181;BME280;11256;50.830;12.834;2023-04-06T04:16:43;97925.91;;;3.75;56.45
22181;BME280;11256;50.830;12.834;2023-04-06T04:21:45;97928.09;;;3.66;56.42
22181;BME280;11256;50.830;12.834;2023-04-06T04:26:47;97929.38;;;3.64;56.40
22181;BME280;11256;50.830;12.834;2023-04-06T04:31:49;97925.06;;;3.63;56.64
22181;BME280;11256;50.830;12.834;2023-04-06T04:36:52;97929.25;;;3.59;56.44
22181;BME280;11256;50.830;12.834;2023-04-06T04:42:00;97901.63;;;3.47;56.68
22181;BME280;11256;50.830;12.834;2023-04-06T04:47:01;97924.25;;;3.51;56.79
22181;BME280;11256;50.830;12.834;2023-04-06T04:52:13;97935.41;;;3.48;56.45
22181;BME280;11256;50.830;12.834;2023-04-06T04:57:23;97937.84;;;3.49;56.87
22181;BME280;11256;50.830;12.834;2023-04-06T05:02:24;97912.09;;;3.37;56.54
22181;BME280;11256;50.830;12.834;2023-04-06T05:07:38;97928.63;;;3.34;56.56
22181;BME280;11256;50.830;12.834;2023-04-06T05:12:41;97936.78;;;3.39;57.00
22181;BME280;11256;50.830;12.834;2023-04-06T05:17:44;97936.66;;;3.34;57.35
22181;BME280;11256;50.830;12.834;2023-04-06T05:22:48;97946.69;;;3.38;56.81
22181;BME280;11256;50.830;12.834;2023-04-06T05:27:49;97951.81;;;3.40;57.34
22181;BME280;11256;50.830;12.834;2023-04-06T05:33:01;97946.44;;;3.40;57.60
22181;BME280;11256;50.830;12.834;2023-04-06T05:38:09;97946.09;;;3.48;57.11
22181;BME280;11256;50.830;12.834;2023-04-06T05:43:11;97954.28;;;3.53;57.79
22181;BME280;11256;50.830;12.834;2023-04-06T05:48:15;97933.31;;;3.50;57.83
22181;BME280;11256;50.830;12.834;2023-04-06T05:53:16;97921.09;;;3.54;58.51
22181;BME280;11256;50.830;12.834;2023-04-06T05:58:24;97956.69;;;3.84;58.35
22181;BME280;11256;50.830;12.834;2023-04-06T06:03:27;97952.75;;;3.98;58.18
22181;BME280;11256;50.830;12.834;2023-04-06T06:08:30;97926.50;;;4.00;58.23
22181;BME280;11256;50.830;12.834;2023-04-06T06:13:33;97960.09;;;4.37;59.15
22181;BME280;11256;50.830;12.834;2023-04-06T06:18:34;97959.09;;;4.66;59.72
22181;BME280;11256;50.830;12.834;2023-04-06T06:23:36;97949.75;;;4.80;59.86
22181;BME280;11256;50.830;12.834;2023-04-06T06:28:37;97974.50;;;5.10;59.29
22181;BME280;11256;50.830;12.834;2023-04-06T06:33:37;97955.25;;;5.13;59.32
22181;BME280;11256;50.830;12.834;2023-04-06T06:38:38;97977.22;;;5.38;59.69
22181;BME280;11256;50.830;12.834;2023-04-06T06:43:39;97959.66;;;5.47;59.58
22181;BME280;11256;50.830;12.834;2023-04-06T06:48:42;97969.34;;;6.09;61.31
22181;BME280;11256;50.830;12.834;2023-04-06T06:53:43;97962.50;;;6.94;61.54
22181;BME280;11256;50.830;12.834;2023-04-06T06:58:44;97975.88;;;7.80;61.40
22181;BME280;11256;50.830;12.834;2023-04-06T07:03:45;97959.06;;;8.31;59.04
22181;BME280;11256;50.830;12.834;2023-04-06T07:08:45;97978.16;;;9.02;57.95
22181;BME280;11256;50.830;12.834;2023-04-06T07:13:45;97971.47;;;9.25;56.12
22181;BME280;11256;50.830;12.834;2023-04-06T07:18:46;97982.31;;;9.35;55.80
22181;BME280;11256;50.830;12.834;2023-04-06T07:23:46;97970.44;;;9.36;55.91
22181;BME280;11256;50.830;12.834;2023-04-06T07:28:48;97979.28;;;10.23;55.16
22181;BME280;11256;50.830;12.834;2023-04-06T07:33:48;97973.66;;;11.86;54.99
22181;BME280;11256;50.830;12.834;2023-04-06T07:38:50;97979.38;;;13.09;50.72
22181;BME280;11256;50.830;12.834;2023-04-06T07:43:51;97982.16;;;13.51;50.40
22181;BME280;11256;50.830;12.834;2023-04-06T07:48:52;97963.03;;;14.30;49.51
22181;BME280;11256;50.830;12.834;2023-04-06T07:53:52;97978.50;;;15.66;45.83
22181;BME280;11256;50.830;12.834;2023-04-06T07:58:53;97980.78;;;16.35;44.74
22181;BME280;11256;50.830;12.834;2023-04-06T08:03:56;97979.72;;;16.88;43.58
22181;BME280;11256;50.830;12.834;2023-04-06T08:08:57;97989.69;;;18.10;42.49
22181;BME280;11256;50.830;12.834;2023-04-06T08:13:57;97970.97;;;18.80;40.42
22181;BME280;11256;50.830;12.834;2023-04-06T08:18:58;97982.72;;;18.80;39.07
22181;BME280;11256;50.830;12.834;2023-04-06T08:23:58;97987.34;;;19.89;39.24
22181;BME280;11256;50.830;12.834;2023-04-06T08:28:58;97975.50;;;21.11;38.44
22181;BME280;11256;50.830;12.834;2023-04-06T08:33:59;97979.03;;;21.92;36.02
22181;BME280;11256;50.830;12.834;2023-04-06T08:39:00;97987.19;;;22.01;34.34
22181;BME280;11256;50.830;12.834;2023-04-06T08:44:01;97968.63;;;22.65;34.18
22181;BME280;11256;50.830;12.834;2023-04-06T08:49:03;97958.81;;;23.38;34.44
22181;BME280;11256;50.830;12.834;2023-04-06T08:54:06;97973.38;;;24.50;30.89
22181;BME280;11256;50.830;12.834;2023-04-06T08:59:08;97963.53;;;23.99;31.43
22181;BME280;11256;50.830;12.834;2023-04-06T09:04:10;97975.34;;;23.50;30.61
22181;BME280;11256;50.830;12.834;2023-04-06T09:09:11;97955.59;;;22.50;31.02
22181;BME280;11256;50.830;12.834;2023-04-06T09:14:12;97975.19;;;21.25;31.20
22181;BME280;11256;50.830;12.834;2023-04-06T09:19:12;97954.31;;;20.59;31.38
22181;BME280;11256;50.830;12.834;2023-04-06T09:24:13;97960.88;;;19.76;31.46
22181;BME280;11256;50.830;12.834;2023-04-06T09:29:24;97963.56;;;19.18;32.19
22181;BME280;11256;50.830;12.834;2023-04-06T09:34:26;97953.38;;;18.55;32.92
22181;BME280;11256;50.830;12.834;2023-04-06T09:39:26;97950.00;;;18.50;34.27
22181;BME280;11256;50.830;12.834;2023-04-06T09:44:27;97953.22;;;19.61;33.44
22181;BME280;11256;50.830;12.834;2023-04-06T09:49:30;97935.59;;;19.82;32.04
22181;BME280;11256;50.830;12.834;2023-04-06T09:54:31;97950.84;;;20.62;30.27
22181;BME280;11256;50.830;12.834;2023-04-06T09:59:56;97946.44;;;20.49;31.64
22181;BME280;11256;50.830;12.834;2023-04-06T10:05:06;97930.09;;;20.32;32.54
22181;BME280;11256;50.830;12.834;2023-04-06T10:10:09;97938.25;;;20.20;32.02
22181;BME280;11256;50.830;12.834;2023-04-06T10:15:11;97950.25;;;19.95;32.45
22181;BME280;11256;50.830;12.834;2023-04-06T10:20:29;97926.06;;;19.22;32.23
22181;BME280;11256;50.830;12.834;2023-04-06T10:25:32;97937.63;;;18.98;32.97
22181;BME280;11256;50.830;12.834;2023-04-06T10:30:34;97930.09;;;18.78;32.17
22181;BME280;11256;50.830;12.834;2023-04-06T10:35:37;97913.50;;;18.41;32.94
22181;BME280;11256;50.830;12.834;2023-04-06T10:40:39;97926.09;;;18.25;33.01
22181;BME280;11256;50.830;12.834;2023-04-06T10:45:40;97915.41;;;17.81;33.59
22181;BME280;11256;50.830;12.834;2023-04-06T10:50:50;97913.31;;;17.69;33.87
22181;BME280;11256;50.830;12.834;2023-04-06T10:55:51;97905.41;;;17.68;31.23
22181;BME280;11256;50.830;12.834;2023-04-06T11:00:54;97903.00;;;17.75;36.12
22181;BME280;11256;50.830;12.834;2023-04-06T11:05:55;97897.34;;;17.63;28.27
22181;BME280;11256;50.830;12.834;2023-04-06T11:16:07;97889.72;;;16.95;34.32
22181;BME280;11256;50.830;12.834;2023-04-06T11:21:11;97887.25;;;16.55;34.54
22181;BME280;11256;50.830;12.834;2023-04-06T11:26:12;97895.94;;;17.26;36.34
22181;BME280;11256;50.830;12.834;2023-04-06T11:31:14;97890.91;;;17.76;35.98
22181;BME280;11256;50.830;12.834;2023-04-06T11:36:14;97875.75;;;18.04;36.18
22181;BME280;11256;50.830;12.834;2023-04-06T11:41:15;97882.91;;;18.85;34.89
22181;BME280;11256;50.830;12.834;2023-04-06T11:46:17;97876.22;;;19.32;34.85
22181;BME280;11256;50.830;12.834;2023-04-06T11:51:22;97852.94;;;19.00;35.54
22181;BME280;11256;50.830;12.834;2023-04-06T11:56:28;97835.75;;;18.74;36.68
22181;BME280;11256;50.830;12.834;2023-04-06T12:01:29;97848.25;;;18.55;36.03
22181;BME280;11256;50.830;12.834;2023-04-06T12:06:30;97854.56;;;19.59;34.57
22181;BME280;11256;50.830;12.834;2023-04-06T12:11:30;97849.81;;;19.10;29.13
22181;BME280;11256;50.830;12.834;2023-04-06T12:16:31;97831.94;;;18.96;33.47
22181;BME280;11256;50.830;12.834;2023-04-06T12:21:33;97832.63;;;20.57;32.97
22181;BME280;11256;50.830;12.834;2023-04-06T12:26:33;97837.88;;;20.38;33.77
22181;BME280;11256;50.830;12.834;2023-04-06T12:31:35;97823.81;;;21.59;31.50
22181;BME280;11256;50.830;12.834;2023-04-06T12:36:37;97826.78;;;21.78;30.65
22181;BME280;11256;50.830;12.834;2023-04-06T12:41:37;97842.88;;;21.88;32.01
22181;BME280;11256;50.830;12.834;2023-04-06T12:46:41;97833.88;;;21.04;32.96
22181;BME280;11256;50.830;12.834;2023-04-06T12:51:43;97819.16;;;21.24;32.17
22181;BME280;11256;50.830;12.834;2023-04-06T12:56:43;97823.72;;;21.44;32.05
22181;BME280;11256;50.830;12.834;2023-04-06T13:01:43;97803.88;;;21.14;34.04
22181;BME280;11256;50.830;12.834;2023-04-06T13:06:44;97790.75;;;21.47;32.39
22181;BME280;11256;50.830;12.834;2023-04-06T13:11:44;97793.28;;;20.80;30.34
22181;BME280;11256;50.830;12.834;2023-04-06T13:16:45;97791.72;;;20.35;28.84
22181;BME280;11256;50.830;12.834;2023-04-06T13:21:46;97789.50;;;20.61;34.20
22181;BME280;11256;50.830;12.834;2023-04-06T13:26:46;97799.41;;;21.22;33.15
22181;BME280;11256;50.830;12.834;2023-04-06T13:31:47;97778.53;;;21.09;34.54
22181;BME280;11256;50.830;12.834;2023-04-06T13:36:47;97784.69;;;21.30;34.52
22181;BME280;11256;50.830;12.834;2023-04-06T13:41:47;97772.50;;;22.10;33.08
22181;BME280;11256;50.830;12.834;2023-04-06T13:46:48;97774.25;;;22.30;32.28
22181;BME280;11256;50.830;12.834;2023-04-06T13:51:48;97763.28;;;22.33;31.86
22181;BME280;11256;50.830;12.834;2023-04-06T13:56:48;97769.66;;;22.65;32.59
22181;BME280;11256;50.830;12.834;2023-04-06T14:01:49;97762.44;;;22.02;33.05
22181;BME280;11256;50.830;12.834;2023-04-06T14:06:49;97762.56;;;21.54;33.33
22181;BME280;11256;50.830;12.834;2023-04-06T14:11:50;97756.16;;;21.89;34.27
22181;BME280;11256;50.830;12.834;2023-04-06T14:16:51;97755.81;;;21.91;33.43
22181;BME280;11256;50.830;12.834;2023-04-06T14:21:51;97752.78;;;22.39;32.89
22181;BME280;11256;50.830;12.834;2023-04-06T14:26:52;97761.34;;;22.34;34.71
22181;BME280;11256;50.830;12.834;2023-04-06T14:31:52;97743.94;;;22.18;33.78
22181;BME280;11256;50.830;12.834;2023-04-06T14:36:53;97750.06;;;22.27;33.81
22181;BME280;11256;50.830;12.834;2023-04-06T14:41:53;97745.09;;;21.50;33.20
22181;BME280;11256;50.830;12.834;2023-04-06T14:46:53;97711.50;;;21.60;33.13
22181;BME280;11256;50.830;12.834;2023-04-06T14:51:54;97730.91;;;21.75;34.50
22181;BME280;11256;50.830;12.834;2023-04-06T14:56:54;97736.00;;;21.89;34.35
22181;BME280;11256;50.830;12.834;2023-04-06T15:01:55;97741.34;;;22.09;34.29
22181;BME280;11256;50.830;12.834;2023-04-06T15:06:56;97737.50;;;22.14;34.51
22181;BME280;11256;50.830;12.834;2023-04-06T15:11:56;97738.75;;;22.01;33.92
22181;BME280;11256;50.830;12.834;2023-04-06T15:16:58;97736.41;;;22.03;33.72
22181;BME280;11256;50.830;12.834;2023-04-06T15:21:58;97726.19;;;22.03;33.56
22181;BME280;11256;50.830;12.834;2023-04-06T15:26:58;97730.41;;;21.85;33.66
22181;BME280;11256;50.830;12.834;2023-04-06T15:31:59;97723.19;;;21.81;34.41
22181;BME280;11256;50.830;12.834;2023-04-06T15:37:01;97727.09;;;21.80;34.70
22181;BME280;11256;50.830;12.834;2023-04-06T15:42:01;97738.81;;;21.49;29.59
22181;BME280;11256;50.830;12.834;2023-04-06T15:47:02;97742.53;;;21.29;33.89
22181;BME280;11256;50.830;12.834;2023-04-06T15:52:02;97721.78;;;21.08;34.05
22181;BME280;11256;50.830;12.834;2023-04-06T15:57:02;97738.31;;;21.20;33.98
22181;BME280;11256;50.830;12.834;2023-04-06T16:02:03;97736.69;;;21.07;33.51
22181;BME280;11256;50.830;12.834;2023-04-06T16:07:03;97738.09;;;21.01;33.47
22181;BME280;11256;50.830;12.834;2023-04-06T16:12:04;97736.28;;;20.93;33.29
22181;BME280;11256;50.830;12.834;2023-04-06T16:17:04;97735.09;;;20.82;33.63
22181;BME280;11256;50.830;12.834;2023-04-06T16:22:05;97737.97;;;20.73;34.28
22181;BME280;11256;50.830;12.834;2023-04-06T16:27:05;97737.94;;;20.61;34.12
22181;BME280;11256;50.830;12.834;2023-04-06T16:32:06;97738.06;;;20.53;33.78
22181;BME280;11256;50.830;12.834;2023-04-06T16:37:09;97754.78;;;20.36;34.93
22181;BME280;11256;50.830;12.834;2023-04-06T16:42:10;97731.38;;;20.18;33.77
22181;BME280;11256;50.830;12.834;2023-04-06T16:47:10;97743.47;;;20.05;34.17
22181;BME280;11256;50.830;12.834;2023-04-06T16:52:11;97735.84;;;19.90;34.95
22181;BME280;11256;50.830;12.834;2023-04-06T16:57:11;97734.13;;;19.65;35.06
22181;BME280;11256;50.830;12.834;2023-04-06T17:02:11;97735.03;;;19.57;35.50
22181;BME280;11256;50.830;12.834;2023-04-06T17:07:12;97717.94;;;19.31;35.85
22181;BME280;11256;50.830;12.834;2023-04-06T17:12:12;97739.03;;;19.18;36.05
22181;BME280;11256;50.830;12.834;2023-04-06T17:17:12;97720.63;;;18.90;36.51
22181;BME280;11256;50.830;12.834;2023-04-06T17:22:13;97733.81;;;18.76;36.97
22181;BME280;11256;50.830;12.834;2023-04-06T17:27:19;97735.09;;;18.49;37.25
22181;BME280;11256;50.830;12.834;2023-04-06T17:32:22;97748.38;;;18.30;37.36
22181;BME280;11256;50.830;12.834;2023-04-06T17:37:22;97754.41;;;18.07;37.26
22181;BME280;11256;50.830;12.834;2023-04-06T17:42:23;97751.88;;;17.85;37.37
22181;BME280;11256;50.830;12.834;2023-04-06T17:47:23;97754.50;;;17.56;36.72
22181;BME280;11256;50.830;12.834;2023-04-06T17:52:30;97749.13;;;17.00;35.37
22181;BME280;11256;50.830;12.834;2023-04-06T17:57:31;97748.69;;;16.59;36.19
22181;BME280;11256;50.830;12.834;2023-04-06T18:02:31;97749.19;;;16.30;36.62
22181;BME280;11256;50.830;12.834;2023-04-06T18:07:31;97756.00;;;16.11;37.63
22181;BME280;11256;50.830;12.834;2023-04-06T18:12:32;97771.25;;;16.03;37.76
22181;BME280;11256;50.830;12.834;2023-04-06T18:17:33;97752.28;;;15.76;38.01
22181;BME280;11256;50.830;12.834;2023-04-06T18:22:33;97781.47;;;15.67;37.96
22181;BME280;11256;50.830;12.834;2023-04-06T18:27:35;97788.72;;;15.50;38.02
22181;BME280;11256;50.830;12.834;2023-04-06T18:32:36;97778.50;;;15.20;38.06
22181;BME280;11256;50.830;12.834;2023-04-06T18:37:36;97771.88;;;14.99;38.35
22181;BME280;11256;50.830;12.834;2023-04-06T18:42:36;97795.81;;;14.88;38.18
22181;BME280;11256;50.830;12.834;2023-04-06T18:47:37;97791.88;;;14.67;38.48
22181;BME280;11256;50.830;12.834;2023-04-06T18:52:39;97791.69;;;14.50;38.67
22181;BME280;11256;50.830;12.834;2023-04-06T18:57:39;97801.06;;;14.31;38.68
22181;BME280;11256;50.830;12.834;2023-04-06T19:02:40;97785.47;;;14.04;38.64
22181;BME280;11256;50.830;12.834;2023-04-06T19:07:40;97789.34;;;13.85;38.80
22181;BME280;11256;50.830;12.834;2023-04-06T19:12:47;97771.31;;;13.57;38.93
22181;BME280;11256;50.830;12.834;2023-04-06T19:17:47;97807.78;;;13.56;39.40
22181;BME280;11256;50.830;12.834;2023-04-06T19:22:48;97804.00;;;13.38;39.52
22181;BME280;11256;50.830;12.834;2023-04-06T19:27:49;97804.00;;;13.20;39.55
22181;BME280;11256;50.830;12.834;2023-04-06T19:32:50;97807.75;;;13.05;39.55
22181;BME280;11256;50.830;12.834;2023-04-06T19:37:50;97806.09;;;12.86;39.85
22181;BME280;11256;50.830;12.834;2023-04-06T19:42:51;97803.00;;;12.69;39.91
22181;BME280;11256;50.830;12.834;2023-04-06T19:47:52;97792.97;;;12.46;39.94
22181;BME280;11256;50.830;12.834;2023-04-06T19:52:52;97810.44;;;12.40;40.06
22181;BME280;11256;50.830;12.834;2023-04-06T19:57:54;97806.81;;;12.26;40.24
22181;BME280;11256;50.830;12.834;2023-04-06T20:02:55;97772.13;;;11.89;40.42
22181;BME280;11256;50.830;12.834;2023-04-06T20:07:55;97787.16;;;11.82;40.30
22181;BME280;11256;50.830;12.834;2023-04-06T20:12:57;97801.84;;;11.76;40.74
22181;BME280;11256;50.830;12.834;2023-04-06T20:17:57;97799.78;;;11.63;40.99
22181;BME280;11256;50.830;12.834;2023-04-06T20:22:57;97804.78;;;11.46;40.85
22181;BME280;11256;50.830;12.834;2023-04-06T20:27:58;97808.16;;;11.33;40.95
22181;BME280;11256;50.830;12.834;2023-04-06T20:32:58;97806.56;;;11.22;41.24
22181;BME280;11256;50.830;12.834;2023-04-06T20:37:58;97785.84;;;10.97;41.18
22181;BME280;11256;50.830;12.834;2023-04-06T20:42:59;97772.63;;;10.86;41.51
22181;BME280;11256;50.830;12.834;2023-04-06T20:47:59;97796.50;;;10.84;41.65
22181;BME280;11256;50.830;12.834;2023-04-06T20:53:00;97802.25;;;10.72;41.40
22181;BME280;11256;50.830;12.834;2023-04-06T20:58:00;97797.13;;;10.61;41.62
22181;BME280;11256;50.830;12.834;2023-04-06T21:03:00;97777.72;;;10.39;41.79
22181;BME280;11256;50.830;12.834;2023-04-06T21:08:01;97786.97;;;10.28;41.93
22181;BME280;11256;50.830;12.834;2023-04-06T21:13:01;97792.13;;;10.24;42.05
22181;BME280;11256;50.830;12.834;2023-04-06T21:18:02;97779.44;;;10.10;42.09
22181;BME280;11256;50.830;12.834;2023-04-06T21:23:02;97768.63;;;9.90;42.05
22181;BME280;11256;50.830;12.834;2023-04-06T21:28:03;97778.41;;;9.86;42.07
22181;BME280;11256;50.830;12.834;2023-04-06T21:33:04;97774.09;;;9.75;42.56
22181;BME280;11256;50.830;12.834;2023-04-06T21:38:06;97784.09;;;9.64;42.56
22181;BME280;11256;50.830;12.834;2023-04-06T21:43:07;97772.19;;;9.55;42.37
22181;BME280;11256;50.830;12.834;2023-04-06T21:48:07;97773.28;;;9.44;42.67
22181;BME280;11256;50.830;12.834;2023-04-06T21:53:08;97751.66;;;9.24;42.61
22181;BME280;11256;50.830;12.834;2023-04-06T21:58:08;97766.53;;;9.27;42.44
22181;BME280;11256;50.830;12.834;2023-04-06T22:03:09;97764.34;;;9.14;42.82
22181;BME280;11256;50.830;12.834;2023-04-06T22:08:09;97765.97;;;9.05;42.92
22181;BME280;11256;50.830;12.834;2023-04-06T22:13:10;97755.16;;;8.95;43.10
22181;BME280;11256;50.830;12.834;2023-04-06T22:18:12;97751.34;;;8.86;43.20
22181;BME280;11256;50.830;12.834;2023-04-06T22:23:12;97752.13;;;8.76;42.99
22181;BME280;11256;50.830;12.834;2023-04-06T22:28:12;97736.97;;;8.55;43.12
22181;BME280;11256;50.830;12.834;2023-04-06T22:33:13;97745.31;;;8.49;43.37
22181;BME280;11256;50.830;12.834;2023-04-06T22:38:13;97738.25;;;8.38;43.53
22181;BME280;11256;50.830;12.834;2023-04-06T22:43:13;97737.94;;;8.29;43.31
22181;BME280;11256;50.830;12.834;2023-04-06T22:48:13;97744.16;;;8.25;43.80
22181;BME280;11256;50.830;12.834;2023-04-06T22:53:14;97743.50;;;8.08;43.49
22181;BME280;11256;50.830;12.834;2023-04-06T22:58:14;97733.78;;;8.02;43.80
22181;BME280;11256;50.830;12.834;2023-04-06T23:03:14;97756.16;;;8.02;43.90
22181;BME280;11256;50.830;12.834;2023-04-06T23:08:15;97758.53;;;7.94;43.92
22181;BME280;11256;50.830;12.834;2023-04-06T23:13:15;97746.06;;;7.83;44.28
22181;BME280;11256;50.830;12.834;2023-04-06T23:18:15;97753.59;;;7.76;43.91
22181;BME280;11256;50.830;12.834;2023-04-06T23:23:16;97751.66;;;7.66;44.04
22181;BME280;11256;50.830;12.834;2023-04-06T23:28:16;97747.50;;;7.54;44.18
22181;BME280;11256;50.830;12.834;2023-04-06T23:33:16;97744.78;;;7.49;44.36
22181;BME280;11256;50.830;12.834;2023-04-06T23:38:17;97739.34;;;7.44;44.28
22181;BME280;11256;50.830;12.834;2023-04-06T23:43:17;97736.56;;;7.34;44.49
22181;BME280;11256;50.830;12.834;2023-04-06T23:48:17;97717.63;;;7.19;44.45
22181;BME280;11256;50.830;12.834;2023-04-06T23:53:18;97723.81;;;7.19;44.50
22181;BME280;11256;50.830;12.834;2023-04-06T23:58:18;97706.13;;;7.02;44.44
